createdAt,value
2023-02-27T00:02:18.150Z,2.02
2023-02-27T00:04:46.120Z,2.01
2023-02-27T00:07:14.411Z,1.96
2023-02-27T00:09:43.585Z,1.93
2023-02-27T00:12:12.099Z,1.85
2023-02-27T00:14:39.994Z,1.82
2023-02-27T00:17:08.022Z,1.78
2023-02-27T00:19:35.848Z,1.75
2023-02-27T00:22:03.798Z,1.70
2023-02-27T00:24:31.556Z,1.64
2023-02-27T00:27:00.876Z,1.60
2023-02-27T00:29:28.833Z,1.59
2023-02-27T00:31:56.690Z,1.54
2023-02-27T00:34:25.500Z,1.54
2023-02-27T00:36:54.152Z,1.53
2023-02-27T00:39:22.003Z,1.52
2023-02-27T00:41:49.880Z,1.51
2023-02-27T00:44:19.206Z,1.51
2023-02-27T00:46:47.043Z,1.49
2023-02-27T00:49:14.926Z,1.49
2023-02-27T00:51:42.837Z,1.49
2023-02-27T00:54:10.642Z,1.47
2023-02-27T00:56:38.540Z,1.46
2023-02-27T00:59:06.511Z,1.45
2023-02-27T01:01:35.775Z,1.44
2023-02-27T01:04:03.866Z,1.44
2023-02-27T01:06:31.768Z,1.41
2023-02-27T01:08:59.610Z,1.40
2023-02-27T01:11:27.860Z,1.38
2023-02-27T01:13:55.845Z,1.37
2023-02-27T01:16:24.383Z,1.38
2023-02-27T01:18:54.225Z,1.37
2023-02-27T01:21:24.698Z,1.35
2023-02-27T01:23:52.634Z,1.33
2023-02-27T01:26:20.683Z,1.33
2023-02-27T01:28:48.575Z,1.32
2023-02-27T01:31:16.776Z,1.31
2023-02-27T01:33:44.770Z,1.28
2023-02-27T01:36:13.959Z,1.29
2023-02-27T01:38:43.222Z,1.26
2023-02-27T01:41:11.272Z,1.21
2023-02-27T01:43:55.699Z,1.23
2023-02-27T01:46:24.211Z,1.19
2023-02-27T01:48:55.628Z,1.20
2023-02-27T01:51:25.145Z,1.19
2023-02-27T01:53:54.250Z,1.15
2023-02-27T01:56:25.460Z,1.14
2023-02-27T01:58:57.464Z,1.14
2023-02-27T02:01:27.350Z,1.10
2023-02-27T02:04:01.691Z,1.13
2023-02-27T02:06:36.561Z,1.11
2023-02-27T02:09:07.843Z,1.11
2023-02-27T02:11:35.732Z,1.12
2023-02-27T02:14:03.686Z,1.12
2023-02-27T02:16:52.000Z,1.15
2023-02-27T02:19:53.909Z,1.14
2023-02-27T02:23:05.410Z,1.15
2023-02-27T02:26:06.431Z,1.14
2023-02-27T02:29:00.017Z,1.15
2023-02-27T02:31:48.399Z,0.92
2023-02-27T02:34:52.328Z,1.10
2023-02-27T02:38:04.199Z,1.14
2023-02-27T02:40:39.329Z,1.13
2023-02-27T02:43:12.134Z,1.13
2023-02-27T02:45:49.384Z,1.11
2023-02-27T02:48:22.328Z,1.12
2023-02-27T02:50:55.771Z,1.11
2023-02-27T02:53:37.062Z,1.11
2023-02-27T02:56:11.827Z,0.89
2023-02-27T02:58:47.994Z,1.05
2023-02-27T03:01:17.961Z,1.07
2023-02-27T03:03:52.611Z,1.07
2023-02-27T03:06:26.395Z,1.06
2023-02-27T03:08:57.544Z,1.04
2023-02-27T03:11:31.650Z,1.03
2023-02-27T03:14:06.389Z,1.02
2023-02-27T03:16:41.080Z,1.01
2023-02-27T03:19:13.397Z,0.99
2023-02-27T03:21:47.130Z,0.96
2023-02-27T03:24:22.175Z,0.97
2023-02-27T03:26:54.485Z,0.95
2023-02-27T03:29:31.103Z,0.93
2023-02-27T03:32:04.487Z,0.92
2023-02-27T03:34:36.046Z,0.90
2023-02-27T03:37:18.240Z,0.90
2023-02-27T03:39:49.021Z,0.87
2023-02-27T03:42:30.116Z,0.86
2023-02-27T03:45:25.420Z,0.84
2023-02-27T03:47:53.984Z,0.81
2023-02-27T03:50:22.521Z,0.81
2023-02-27T03:52:51.167Z,0.80
2023-02-27T03:55:22.822Z,0.79
2023-02-27T03:57:53.060Z,0.78
2023-02-27T04:00:23.226Z,0.75
2023-02-27T04:02:53.013Z,0.74
2023-02-27T04:05:24.988Z,0.71
2023-02-27T04:08:15.305Z,0.71
2023-02-27T04:11:00.998Z,0.70
2023-02-27T04:13:45.764Z,0.67
2023-02-27T04:16:40.741Z,0.65
2023-02-27T04:19:30.367Z,0.65
2023-02-27T04:22:10.154Z,0.63
2023-02-27T04:24:47.157Z,0.60
2023-02-27T04:27:25.157Z,0.60
2023-02-27T04:30:00.200Z,0.58
2023-02-27T04:32:39.722Z,0.58
2023-02-27T04:35:12.668Z,0.53
2023-02-27T04:37:48.765Z,0.52
2023-02-27T04:40:20.710Z,0.48
2023-02-27T04:42:54.894Z,0.48
2023-02-27T04:45:28.728Z,0.47
2023-02-27T04:48:01.603Z,0.45
2023-02-27T04:50:33.400Z,0.43
2023-02-27T04:53:06.399Z,0.42
2023-02-27T04:55:36.940Z,0.21
2023-02-27T04:58:09.548Z,0.35
2023-02-27T05:00:42.741Z,0.36
2023-02-27T05:03:17.374Z,0.36
2023-02-27T05:05:47.716Z,0.34
2023-02-27T05:08:22.309Z,0.34
2023-02-27T05:10:53.893Z,0.31
2023-02-27T05:13:25.980Z,0.30
2023-02-27T05:15:59.720Z,0.28
2023-02-27T05:18:27.980Z,0.25
2023-02-27T05:21:06.830Z,0.27
2023-02-27T05:23:40.985Z,0.25
2023-02-27T05:26:17.058Z,0.24
2023-02-27T05:28:53.935Z,0.23
2023-02-27T05:31:29.747Z,0.21
2023-02-27T05:34:03.091Z,0.19
2023-02-27T05:36:33.822Z,-0.05
2023-02-27T05:39:05.570Z,0.10
2023-02-27T05:41:35.957Z,0.13
2023-02-27T05:44:09.682Z,0.11
2023-02-27T05:46:44.507Z,0.10
2023-02-27T05:49:17.398Z,0.09
2023-02-27T05:51:49.250Z,0.07
2023-02-27T05:54:24.068Z,0.05
2023-02-27T05:56:55.953Z,0.06
2023-02-27T05:59:32.165Z,0.05
2023-02-27T06:02:01.625Z,0.03
2023-02-27T06:04:29.527Z,0.02
2023-02-27T06:06:58.180Z,0.02
2023-02-27T06:09:26.000Z,-0.00
2023-02-27T06:11:53.850Z,-0.01
2023-02-27T06:14:21.637Z,-0.01
2023-02-27T06:16:49.580Z,-0.01
2023-02-27T06:19:18.822Z,-0.02
2023-02-27T06:21:46.616Z,-0.03
2023-02-27T06:24:14.448Z,-0.03
2023-02-27T06:26:42.322Z,-0.03
2023-02-27T06:29:10.106Z,-0.04
2023-02-27T06:31:37.902Z,-0.04
2023-02-27T06:34:05.635Z,-0.06
2023-02-27T06:36:34.833Z,-0.05
2023-02-27T06:39:02.699Z,-0.06
2023-02-27T06:41:30.540Z,-0.06
2023-02-27T06:43:58.388Z,-0.07
2023-02-27T06:46:27.096Z,-0.07
2023-02-27T06:48:55.143Z,-0.08
2023-02-27T06:51:23.054Z,-0.09
2023-02-27T06:53:52.493Z,-0.07
2023-02-27T06:56:20.335Z,-0.06
2023-02-27T06:58:48.292Z,-0.02
2023-02-27T07:01:16.346Z,0.06
2023-02-27T07:03:44.200Z,0.16
2023-02-27T07:06:13.138Z,0.31
2023-02-27T07:09:00.937Z,0.48
2023-02-27T07:11:30.573Z,0.70
2023-02-27T07:14:01.665Z,0.91
2023-02-27T07:16:29.669Z,1.12
2023-02-27T07:18:57.524Z,1.35
2023-02-27T07:21:25.539Z,1.58
2023-02-27T07:23:53.610Z,1.81
2023-02-27T07:26:21.471Z,2.04
2023-02-27T07:28:50.651Z,2.29
2023-02-27T07:31:18.663Z,2.49
2023-02-27T07:33:46.458Z,2.71
2023-02-27T07:36:14.324Z,2.92
2023-02-27T07:38:42.090Z,3.13
2023-02-27T07:41:21.225Z,3.31
2023-02-27T07:44:01.670Z,3.53
2023-02-27T07:46:29.838Z,3.71
2023-02-27T07:48:57.886Z,3.88
2023-02-27T07:51:25.918Z,4.04
2023-02-27T07:53:53.750Z,4.19
2023-02-27T07:56:21.564Z,4.33
2023-02-27T07:58:49.349Z,4.45
2023-02-27T08:01:18.574Z,4.57
2023-02-27T08:03:46.375Z,4.65
2023-02-27T08:06:14.272Z,4.69
2023-02-27T08:08:42.235Z,4.74
2023-02-27T08:11:10.626Z,4.74
2023-02-27T08:16:28.460Z,4.71
2023-02-27T08:18:56.837Z,4.66
2023-02-27T08:21:24.933Z,4.61
2023-02-27T08:23:52.836Z,4.56
2023-02-27T08:26:21.357Z,4.49
2023-02-27T08:28:49.174Z,4.42
2023-02-27T08:31:17.173Z,4.36
2023-02-27T08:33:46.384Z,4.30
2023-02-27T08:36:14.440Z,4.23
2023-02-27T08:38:43.656Z,4.17
2023-02-27T08:41:11.525Z,4.11
2023-02-27T08:43:39.311Z,4.06
2023-02-27T08:46:08.324Z,4.00
2023-02-27T08:48:36.200Z,3.96
2023-02-27T08:51:05.456Z,3.93
2023-02-27T08:53:33.221Z,3.88
2023-02-27T08:56:01.394Z,3.85
2023-02-27T08:58:29.536Z,3.82
2023-02-27T09:00:57.366Z,3.80
2023-02-27T09:03:28.726Z,3.78
2023-02-27T09:05:57.541Z,3.76
2023-02-27T09:08:26.725Z,3.75
2023-02-27T09:10:57.332Z,3.73
2023-02-27T09:13:26.770Z,3.71
2023-02-27T09:15:54.878Z,3.72
2023-02-27T09:18:23.046Z,3.73
2023-02-27T09:20:52.028Z,3.76
2023-02-27T09:23:20.315Z,3.75
2023-02-27T09:25:49.566Z,3.74
2023-02-27T09:28:17.529Z,3.81
2023-02-27T09:30:45.275Z,3.84
2023-02-27T09:33:14.872Z,3.84
2023-02-27T09:35:42.752Z,3.86
2023-02-27T09:38:12.125Z,3.88
2023-02-27T09:40:42.775Z,3.94
2023-02-27T09:43:18.040Z,3.97
2023-02-27T09:45:51.257Z,3.92
2023-02-27T09:48:27.635Z,3.90
2023-02-27T09:50:55.656Z,3.83
2023-02-27T09:53:26.913Z,3.86
2023-02-27T09:55:57.117Z,3.82
2023-02-27T09:58:42.129Z,3.73
2023-02-27T10:01:16.845Z,3.84
2023-02-27T10:04:11.086Z,3.81
2023-02-27T10:06:44.914Z,3.80
2023-02-27T10:09:22.382Z,3.72
2023-02-27T10:12:05.829Z,3.78
2023-02-27T10:14:42.580Z,3.66
2023-02-27T10:17:17.264Z,3.81
2023-02-27T10:19:48.005Z,3.74
2023-02-27T10:22:22.634Z,3.78
2023-02-27T10:24:54.045Z,3.88
2023-02-27T10:27:23.256Z,3.95
2023-02-27T10:29:54.331Z,3.92
2023-02-27T10:32:25.745Z,3.95
2023-02-27T10:35:01.007Z,4.00
2023-02-27T10:37:30.775Z,4.06
2023-02-27T10:40:04.377Z,4.13
2023-02-27T10:42:36.149Z,4.14
2023-02-27T10:45:06.116Z,4.21
2023-02-27T10:47:33.928Z,4.21
2023-02-27T10:50:01.720Z,4.28
2023-02-27T10:52:29.490Z,4.32
2023-02-27T10:55:18.478Z,4.38
2023-02-27T10:57:47.925Z,4.43
2023-02-27T11:00:33.441Z,4.49
2023-02-27T11:03:01.769Z,4.52
2023-02-27T11:05:31.955Z,4.56
2023-02-27T11:08:14.216Z,4.62
2023-02-27T11:10:56.778Z,4.64
2023-02-27T11:13:26.959Z,4.62
2023-02-27T11:16:09.611Z,4.72
2023-02-27T11:18:38.899Z,4.66
2023-02-27T11:21:14.234Z,4.67
2023-02-27T11:23:52.762Z,4.71
2023-02-27T11:26:26.019Z,4.71
2023-02-27T11:29:14.955Z,4.73
2023-02-27T11:31:49.891Z,4.68
2023-02-27T11:34:22.660Z,4.72
2023-02-27T11:36:55.412Z,4.70
2023-02-27T11:39:27.514Z,4.75
2023-02-27T11:41:58.002Z,4.76
2023-02-27T11:44:37.202Z,4.79
2023-02-27T11:47:24.362Z,4.83
2023-02-27T11:50:29.598Z,4.82
2023-02-27T11:53:08.456Z,4.90
2023-02-27T11:55:38.221Z,4.96
2023-02-27T11:58:12.502Z,5.01
2023-02-27T12:00:45.531Z,5.07
2023-02-27T12:03:23.611Z,5.09
2023-02-27T12:05:54.220Z,5.11
2023-02-27T12:08:33.313Z,5.15
2023-02-27T12:11:13.768Z,5.18
2023-02-27T12:13:47.794Z,5.21
2023-02-27T12:16:22.444Z,5.26
2023-02-27T12:18:58.754Z,5.28
2023-02-27T12:21:31.997Z,5.28
2023-02-27T12:24:05.650Z,5.35
2023-02-27T12:26:38.236Z,5.35
2023-02-27T12:29:16.045Z,5.38
2023-02-27T12:31:49.539Z,5.32
2023-02-27T12:34:27.097Z,5.29
2023-02-27T12:36:55.355Z,5.16
2023-02-27T12:39:25.647Z,5.19
2023-02-27T12:42:31.602Z,5.06
2023-02-27T12:45:18.938Z,5.10
2023-02-27T12:47:57.331Z,5.10
2023-02-27T12:50:42.361Z,5.05
2023-02-27T12:53:24.437Z,5.00
2023-02-27T12:55:57.374Z,4.88
2023-02-27T12:58:38.411Z,4.95
2023-02-27T13:01:19.615Z,4.90
2023-02-27T13:03:54.357Z,4.94
2023-02-27T13:06:31.181Z,4.93
2023-02-27T13:09:12.575Z,4.93
2023-02-27T13:11:57.134Z,4.94
2023-02-27T13:14:36.747Z,4.99
2023-02-27T13:17:10.557Z,4.98
2023-02-27T13:19:43.819Z,5.07
2023-02-27T13:22:22.135Z,5.13
2023-02-27T13:24:52.363Z,5.08
2023-02-27T13:27:24.989Z,5.07
2023-02-27T13:30:06.376Z,5.10
2023-02-27T13:32:43.973Z,5.13
2023-02-27T13:35:23.459Z,5.11
2023-02-27T13:37:56.507Z,5.05
2023-02-27T13:40:38.966Z,5.03
2023-02-27T13:43:31.256Z,4.94
2023-02-27T13:46:00.827Z,5.02
2023-02-27T13:48:49.207Z,5.06
2023-02-27T13:51:56.671Z,5.11
2023-02-27T13:54:32.145Z,5.13
2023-02-27T13:57:21.387Z,5.04
2023-02-27T13:59:57.508Z,5.01
2023-02-27T14:02:38.687Z,5.06
2023-02-27T14:05:11.339Z,4.96
2023-02-27T14:07:58.961Z,4.97
2023-02-27T14:10:29.317Z,4.99
2023-02-27T14:12:58.898Z,4.94
2023-02-27T14:15:57.812Z,4.87
2023-02-27T14:18:51.247Z,4.91
2023-02-27T14:22:10.379Z,4.78
2023-02-27T14:24:49.622Z,4.92
2023-02-27T14:27:24.967Z,4.97
2023-02-27T14:29:57.178Z,4.87
2023-02-27T14:32:32.235Z,4.88
2023-02-27T14:35:01.723Z,4.98
2023-02-27T14:37:30.679Z,4.98
2023-02-27T14:40:07.296Z,4.97
2023-02-27T14:42:49.493Z,5.06
2023-02-27T14:45:24.238Z,5.04
2023-02-27T14:47:54.166Z,5.03
2023-02-27T14:50:26.308Z,4.95
2023-02-27T14:52:54.342Z,4.92
2023-02-27T14:55:28.098Z,4.90
2023-02-27T14:57:58.105Z,4.84
2023-02-27T15:00:40.476Z,4.87
2023-02-27T15:03:21.078Z,4.87
2023-02-27T15:05:50.399Z,4.86
2023-02-27T15:08:21.541Z,4.89
2023-02-27T15:10:49.643Z,4.81
2023-02-27T15:13:25.966Z,4.87
2023-02-27T15:16:20.002Z,4.82
2023-02-27T15:18:50.980Z,4.79
2023-02-27T15:21:20.616Z,4.85
2023-02-27T15:23:56.150Z,4.88
2023-02-27T15:26:25.568Z,4.88
2023-02-27T15:28:53.850Z,4.76
2023-02-27T15:31:26.864Z,4.79
2023-02-27T15:33:57.192Z,4.83
2023-02-27T15:36:27.332Z,4.83
2023-02-27T15:39:15.325Z,4.81
2023-02-27T15:41:45.317Z,4.80
2023-02-27T15:44:15.068Z,4.80
2023-02-27T15:46:43.175Z,4.82
2023-02-27T15:49:18.056Z,4.74
2023-02-27T15:51:48.385Z,4.73
2023-02-27T15:54:16.278Z,4.68
2023-02-27T15:56:44.217Z,4.66
2023-02-27T15:59:18.128Z,4.67
2023-02-27T16:01:46.959Z,4.70
2023-02-27T16:04:25.155Z,4.66
2023-02-27T16:07:00.291Z,4.63
2023-02-27T16:09:31.748Z,4.57
2023-02-27T16:12:13.936Z,4.59
2023-02-27T16:14:43.766Z,4.59
2023-02-27T16:17:29.496Z,4.63
2023-02-27T16:20:02.046Z,4.60
2023-02-27T16:22:30.598Z,4.53
2023-02-27T16:25:09.890Z,4.44
2023-02-27T16:27:38.509Z,4.53
2023-02-27T16:30:12.805Z,4.60
2023-02-27T16:32:43.984Z,4.59
2023-02-27T16:35:20.601Z,4.56
2023-02-27T16:37:50.275Z,4.53
2023-02-27T16:40:22.454Z,4.54
2023-02-27T16:42:51.195Z,4.53
2023-02-27T16:45:23.277Z,4.57
2023-02-27T16:47:52.817Z,4.55
2023-02-27T16:50:25.032Z,4.58
2023-02-27T16:52:53.009Z,4.56
2023-02-27T16:55:21.507Z,4.57
2023-02-27T16:57:49.455Z,4.57
2023-02-27T17:00:19.939Z,4.53
2023-02-27T17:02:48.264Z,4.50
2023-02-27T17:05:16.904Z,4.49
2023-02-27T17:07:46.613Z,4.49
2023-02-27T17:10:17.160Z,4.47
2023-02-27T17:12:46.844Z,4.38
2023-02-27T17:15:14.960Z,4.38
2023-02-27T17:17:42.874Z,4.35
2023-02-27T17:20:12.621Z,4.35
2023-02-27T17:22:42.824Z,4.31
2023-02-27T17:25:13.524Z,4.25
2023-02-27T17:27:43.066Z,4.29
2023-02-27T17:30:12.049Z,4.28
2023-02-27T17:32:40.305Z,4.27
2023-02-27T17:35:08.888Z,4.26
2023-02-27T17:37:36.842Z,4.26
2023-02-27T17:40:05.121Z,4.25
2023-02-27T17:42:36.781Z,4.28
2023-02-27T17:45:06.346Z,4.26
2023-02-27T17:47:34.779Z,4.26
2023-02-27T17:50:02.701Z,4.24
2023-02-27T17:52:30.748Z,4.26
2023-02-27T17:54:58.601Z,4.24
2023-02-27T17:57:26.520Z,4.25
2023-02-27T17:59:55.719Z,4.25
2023-02-27T18:02:23.456Z,4.23
2023-02-27T18:04:51.292Z,4.21
2023-02-27T18:07:19.092Z,4.19
2023-02-27T18:09:46.838Z,4.16
2023-02-27T18:12:14.608Z,4.12
2023-02-27T18:14:42.358Z,4.11
2023-02-27T18:17:13.042Z,4.08
2023-02-27T18:19:41.583Z,4.04
2023-02-27T18:22:09.794Z,4.01
2023-02-27T18:24:38.672Z,3.99
2023-02-27T18:27:06.561Z,3.97
2023-02-27T18:29:34.589Z,3.98
2023-02-27T18:32:02.399Z,3.96
2023-02-27T18:34:31.733Z,3.95
2023-02-27T18:36:59.721Z,3.93
2023-02-27T18:39:27.571Z,3.93
2023-02-27T18:41:55.727Z,3.93
2023-02-27T18:44:23.558Z,3.93
2023-02-27T18:46:51.609Z,3.94
2023-02-27T18:49:19.581Z,3.95
2023-02-27T18:51:48.879Z,3.97
2023-02-27T18:54:16.721Z,3.96
2023-02-27T18:56:44.614Z,3.98
2023-02-27T18:59:12.478Z,3.98
2023-02-27T19:01:40.209Z,3.99
2023-02-27T19:04:09.751Z,4.01
2023-02-27T19:06:40.734Z,4.04
2023-02-27T19:09:11.899Z,4.05
2023-02-27T19:11:40.830Z,4.05
2023-02-27T19:14:11.753Z,4.08
2023-02-27T19:16:39.826Z,4.09
2023-02-27T19:19:09.840Z,4.11
2023-02-27T19:21:38.433Z,4.13
2023-02-27T19:24:07.590Z,4.14
2023-02-27T19:26:36.990Z,4.15
2023-02-27T19:29:05.738Z,4.18
2023-02-27T19:31:34.124Z,4.16
2023-02-27T19:34:02.261Z,4.17
2023-02-27T19:36:31.204Z,4.16
2023-02-27T19:38:59.913Z,4.16
2023-02-27T19:41:29.066Z,4.15
2023-02-27T19:43:58.251Z,4.15
2023-02-27T19:46:29.568Z,4.12
2023-02-27T19:48:59.726Z,4.11
2023-02-27T19:51:28.304Z,4.10
2023-02-27T19:53:56.198Z,4.08
2023-02-27T19:56:27.427Z,4.08
2023-02-27T19:58:55.430Z,4.01
2023-02-27T20:01:26.785Z,4.02
2023-02-27T20:03:55.771Z,3.99
2023-02-27T20:06:26.060Z,3.96
2023-02-27T20:08:55.094Z,3.90
2023-02-27T20:11:22.933Z,3.85
2023-02-27T20:13:52.484Z,3.86
2023-02-27T20:16:23.982Z,3.83
2023-02-27T20:18:53.432Z,3.75
2023-02-27T20:21:23.400Z,3.74
2023-02-27T20:23:52.259Z,3.68
2023-02-27T20:26:22.119Z,3.68
2023-02-27T20:28:52.102Z,3.64
2023-02-27T20:31:25.614Z,3.64
2023-02-27T20:33:55.290Z,3.58
2023-02-27T20:36:23.053Z,3.55
2023-02-27T20:38:50.996Z,3.53
2023-02-27T20:41:20.936Z,3.52
2023-02-27T20:43:49.267Z,3.48
2023-02-27T20:46:19.738Z,3.47
2023-02-27T20:48:48.209Z,3.43
2023-02-27T20:51:19.816Z,3.45
2023-02-27T20:53:49.792Z,3.43
2023-02-27T20:56:20.637Z,3.39
2023-02-27T20:58:48.950Z,3.40
2023-02-27T21:01:17.905Z,3.38
2023-02-27T21:03:47.567Z,3.38
2023-02-27T21:06:18.993Z,3.37
2023-02-27T21:08:49.434Z,3.34
2023-02-27T21:11:19.228Z,3.34
2023-02-27T21:13:47.780Z,3.29
2023-02-27T21:16:18.237Z,3.29
2023-02-27T21:18:46.436Z,3.25
2023-02-27T21:21:16.663Z,3.23
2023-02-27T21:23:45.994Z,3.18
2023-02-27T21:26:17.913Z,3.14
2023-02-27T21:28:47.846Z,3.07
2023-02-27T21:31:16.308Z,3.06
2023-02-27T21:33:44.258Z,3.01
2023-02-27T21:36:12.190Z,2.99
2023-02-27T21:38:40.797Z,2.96
2023-02-27T21:41:12.430Z,2.95
2023-02-27T21:43:40.921Z,2.88
2023-02-27T21:46:10.004Z,2.86
2023-02-27T21:48:38.348Z,2.82
2023-02-27T21:51:07.190Z,2.81
2023-02-27T21:53:36.568Z,2.79
2023-02-27T21:56:06.389Z,2.75
2023-02-27T21:58:36.066Z,2.74
2023-02-27T22:01:04.211Z,2.70
2023-02-27T22:03:35.046Z,2.67
2023-02-27T22:06:03.200Z,2.67
2023-02-27T22:08:31.024Z,2.64
2023-02-27T22:10:59.512Z,2.62
2023-02-27T22:13:28.115Z,2.61
2023-02-27T22:15:57.463Z,2.61
2023-02-27T22:18:26.170Z,2.60
2023-02-27T22:20:53.981Z,2.60
2023-02-27T22:23:22.337Z,2.60
2023-02-27T22:26:00.312Z,2.60
2023-02-27T22:28:28.339Z,2.56
2023-02-27T22:31:06.853Z,2.56
2023-02-27T22:33:36.266Z,2.52
2023-02-27T22:36:07.018Z,2.50
2023-02-27T22:38:34.964Z,2.48
2023-02-27T22:41:08.526Z,2.47
2023-02-27T22:43:38.246Z,2.45
2023-02-27T22:46:08.233Z,2.45
2023-02-27T22:48:36.839Z,2.44
2023-02-27T22:51:06.987Z,2.44
2023-02-27T22:53:40.049Z,2.42
2023-02-27T22:56:10.712Z,2.43
2023-02-27T22:58:39.749Z,2.41
2023-02-27T23:01:14.162Z,2.41
2023-02-27T23:03:43.108Z,2.39
2023-02-27T23:06:12.834Z,2.39
2023-02-27T23:08:42.162Z,2.36
2023-02-27T23:11:10.556Z,2.35
2023-02-27T23:13:39.080Z,2.35
2023-02-27T23:16:11.679Z,2.33
2023-02-27T23:18:41.889Z,2.29
2023-02-27T23:21:10.209Z,2.31
2023-02-27T23:23:38.125Z,2.30
2023-02-27T23:26:07.012Z,2.29
2023-02-27T23:28:36.643Z,2.29
2023-02-27T23:31:05.591Z,2.28
2023-02-27T23:33:34.276Z,2.27
2023-02-27T23:36:03.509Z,2.28
2023-02-27T23:38:31.836Z,2.25
2023-02-27T23:41:05.232Z,2.23
2023-02-27T23:43:33.039Z,2.20
2023-02-27T23:46:06.821Z,2.20
2023-02-27T23:48:35.120Z,2.16
2023-02-27T23:51:06.050Z,2.16
2023-02-27T23:53:34.951Z,2.13
2023-02-27T23:56:03.509Z,2.10
2023-02-27T23:58:31.392Z,2.08
